Adams, Illinois
Current Conditions -  °F | °C
As of 5:54 PM on Saturday 25 Oct 2014 (Local Time) from KUIN Reporting Station
Haze Haze  
Wind Chill: 21°   Ceiling: Unl
Heat Index: 21°   Visibility: 5mi
Dew Point:   Wind: 5mph
Humidity: 44%   Direction: 320°NW
Pressure: 30.02"   Gusts: NA
Location:  39.8875°N, 91.0352°W
Report Text: KUIN 252254Z AUTO 32004KT 5SM HZ CLR 21/08 A3002 RMK AO2 SLP164 T02060078
Loading
Personal Weather Stations






























Interactive Weather Map New forecast layout! Learn more

10-Day Weather Forecast

Advertisements
Track Severe Weather on mobile